createdAt,value
2023-04-25T00:00:51.498Z,1.69
2023-04-25T00:01:51.539Z,1.50
2023-04-25T00:02:51.763Z,1.56
2023-04-25T00:03:52.091Z,1.68
2023-04-25T00:04:51.941Z,1.60
2023-04-25T00:05:51.829Z,1.69
2023-04-25T00:06:51.848Z,1.79
2023-04-25T00:07:51.924Z,1.70
2023-04-25T00:08:52.002Z,1.83
2023-04-25T00:09:52.069Z,1.81
2023-04-25T00:10:52.099Z,1.75
2023-04-25T00:11:52.170Z,1.73
2023-04-25T00:12:52.237Z,1.80
2023-04-25T00:13:52.294Z,1.80
2023-04-25T00:14:52.350Z,1.85
2023-04-25T00:15:52.460Z,1.77
2023-04-25T00:16:52.467Z,1.76
2023-04-25T00:17:52.677Z,1.78
2023-04-25T00:18:52.645Z,1.76
2023-04-25T00:19:52.664Z,1.82
2023-04-25T00:20:52.725Z,1.83
2023-04-25T00:21:52.805Z,1.83
2023-04-25T00:22:52.869Z,1.85
2023-04-25T00:23:53.103Z,1.82
2023-04-25T00:24:52.973Z,1.82
2023-04-25T00:25:53.034Z,1.82
2023-04-25T00:26:53.089Z,1.85
2023-04-25T00:27:53.161Z,1.84
2023-04-25T00:28:53.238Z,1.83
2023-04-25T00:29:53.282Z,1.84
2023-04-25T00:30:53.334Z,1.78
2023-04-25T00:31:53.430Z,1.83
2023-04-25T00:32:53.501Z,1.84
2023-04-25T00:33:53.701Z,1.93
2023-04-25T00:34:53.606Z,1.91
2023-04-25T00:35:53.660Z,1.89
2023-04-25T00:36:53.691Z,1.89
2023-04-25T00:37:53.777Z,1.97
2023-04-25T00:38:53.833Z,1.86
2023-04-25T00:39:53.888Z,2.00
2023-04-25T00:40:53.969Z,1.93
2023-04-25T00:41:54.055Z,1.99
2023-04-25T00:42:54.071Z,2.01
2023-04-25T00:43:54.166Z,1.97
2023-04-25T00:44:54.214Z,2.05
2023-04-25T00:45:54.292Z,1.96
2023-04-25T00:46:54.428Z,2.00
2023-04-25T00:47:54.422Z,1.96
2023-04-25T00:48:54.476Z,2.04
2023-04-25T00:49:54.528Z,1.99
2023-04-25T00:50:54.580Z,2.05
2023-04-25T00:51:54.658Z,2.02
2023-04-25T00:52:54.740Z,2.04
2023-04-25T00:53:54.784Z,2.03
2023-04-25T00:54:54.851Z,2.03
2023-04-25T00:55:54.889Z,2.09
2023-04-25T00:56:54.965Z,2.18
2023-04-25T00:57:55.025Z,2.20
2023-04-25T00:58:55.073Z,2.20
2023-04-25T00:59:55.136Z,2.17
2023-04-25T01:00:55.244Z,2.11
2023-04-25T01:01:55.285Z,2.11
2023-04-25T01:02:55.471Z,2.08
2023-04-25T01:03:55.796Z,2.05
2023-04-25T01:04:55.456Z,2.15
2023-04-25T01:05:55.510Z,2.04
2023-04-25T01:06:55.560Z,1.95
2023-04-25T01:07:55.608Z,1.98
2023-04-25T01:08:55.687Z,1.98
2023-04-25T01:09:55.753Z,2.03
2023-04-25T01:10:55.820Z,2.13
2023-04-25T01:11:55.858Z,2.14
2023-04-25T01:12:55.928Z,2.15
2023-04-25T01:13:55.996Z,2.11
2023-04-25T01:14:56.053Z,2.00
2023-04-25T01:15:56.142Z,2.12
2023-04-25T01:16:56.219Z,2.15
2023-04-25T01:17:56.302Z,2.05
2023-04-25T01:18:56.303Z,2.10
2023-04-25T01:19:56.379Z,2.15
2023-04-25T01:20:56.433Z,2.13
2023-04-25T01:21:56.499Z,2.07
2023-04-25T01:22:56.550Z,2.11
2023-04-25T01:23:56.634Z,2.06
2023-04-25T01:24:56.685Z,2.12
2023-04-25T01:25:56.746Z,2.09
2023-04-25T01:26:56.817Z,2.03
2023-04-25T01:27:56.875Z,2.11
2023-04-25T01:28:56.917Z,2.07
2023-04-25T01:29:56.999Z,2.12
2023-04-25T01:30:57.035Z,2.10
2023-04-25T01:31:57.236Z,2.16
2023-04-25T01:32:57.213Z,2.18
2023-04-25T01:33:57.237Z,2.10
2023-04-25T01:34:57.298Z,2.13
2023-04-25T01:35:57.349Z,2.17
2023-04-25T01:36:57.416Z,2.20
2023-04-25T01:37:57.521Z,2.12
2023-04-25T01:38:57.551Z,2.19
2023-04-25T01:39:57.617Z,2.23
2023-04-25T01:40:57.662Z,2.03
2023-04-25T01:41:57.779Z,2.09
2023-04-25T01:42:57.784Z,2.08
2023-04-25T01:43:57.861Z,2.03
2023-04-25T01:44:57.921Z,2.12
2023-04-25T01:45:58.051Z,2.10
2023-04-25T01:46:58.047Z,2.09
2023-04-25T01:47:58.207Z,2.13
2023-04-25T01:48:58.183Z,2.09
2023-04-25T01:49:58.216Z,2.06
2023-04-25T01:50:58.284Z,2.09
2023-04-25T01:51:58.352Z,2.00
2023-04-25T01:52:58.405Z,2.04
2023-04-25T01:54:00.809Z,2.12
2023-04-25T01:54:58.617Z,2.12
2023-04-25T01:55:58.684Z,2.12
2023-04-25T01:56:58.770Z,2.12
2023-04-25T01:57:58.797Z,1.99
2023-04-25T01:58:58.855Z,2.11
2023-04-25T01:59:58.921Z,2.16
2023-04-25T02:00:59.033Z,2.08
2023-04-25T02:01:59.059Z,2.16
2023-04-25T02:02:59.238Z,2.21
2023-04-25T02:03:59.263Z,2.16
2023-04-25T02:04:59.257Z,2.16
2023-04-25T02:05:59.313Z,2.13
2023-04-25T02:06:59.360Z,2.12
2023-04-25T02:07:59.441Z,2.15
2023-04-25T02:08:59.501Z,2.16
2023-04-25T02:09:59.548Z,2.15
2023-04-25T02:10:59.614Z,2.08
2023-04-25T02:11:59.690Z,2.14
2023-04-25T02:12:59.751Z,2.11
2023-04-25T02:13:59.828Z,2.13
2023-04-25T02:14:59.886Z,2.08
2023-04-25T02:16:00.060Z,2.12
2023-04-25T02:17:00.218Z,2.14
2023-04-25T02:18:00.073Z,2.08
2023-04-25T02:19:00.166Z,2.14
2023-04-25T02:20:00.211Z,2.20
2023-04-25T02:21:00.248Z,2.15
2023-04-25T02:22:00.291Z,2.21
2023-04-25T02:23:00.355Z,2.20
2023-04-25T02:24:00.404Z,2.20
2023-04-25T02:25:00.500Z,2.21
2023-04-25T02:26:00.538Z,2.18
2023-04-25T02:27:00.636Z,2.18
2023-04-25T02:28:00.660Z,2.15
2023-04-25T02:29:00.742Z,2.23
2023-04-25T02:30:00.808Z,2.23
2023-04-25T02:31:00.910Z,2.22
2023-04-25T02:32:00.927Z,2.24
2023-04-25T02:33:01.010Z,2.22
2023-04-25T02:34:01.036Z,2.19
2023-04-25T02:35:01.114Z,2.14
2023-04-25T02:36:01.161Z,2.13
2023-04-25T02:37:01.247Z,2.19
2023-04-25T02:38:01.317Z,2.18
2023-04-25T02:39:01.371Z,2.16
2023-04-25T02:40:01.441Z,2.18
2023-04-25T02:41:01.479Z,2.20
2023-04-25T02:42:01.538Z,2.17
2023-04-25T02:43:01.586Z,2.13
2023-04-25T02:44:01.646Z,2.19
2023-04-25T02:45:01.731Z,2.21
2023-04-25T02:46:01.784Z,2.19
2023-04-25T02:47:01.873Z,2.19
2023-04-25T02:48:01.946Z,2.12
2023-04-25T02:49:01.964Z,2.15
2023-04-25T02:50:02.038Z,2.15
2023-04-25T02:51:02.097Z,2.17
2023-04-25T02:52:02.135Z,2.18
2023-04-25T02:53:02.208Z,2.22
2023-04-25T02:54:02.274Z,2.21
2023-04-25T02:55:02.342Z,2.16
2023-04-25T02:56:02.391Z,2.15
2023-04-25T02:57:02.453Z,2.16
2023-04-25T02:58:02.497Z,2.19
2023-04-25T02:59:02.545Z,2.18
2023-04-25T03:00:02.690Z,2.15
2023-04-25T03:01:02.699Z,2.17
2023-04-25T03:02:02.735Z,2.15
2023-04-25T03:03:02.923Z,2.11
2023-04-25T03:04:02.894Z,2.13
2023-04-25T03:05:02.936Z,2.11
2023-04-25T03:06:02.997Z,2.18
2023-04-25T03:07:03.059Z,2.18
2023-04-25T03:08:03.101Z,2.16
2023-04-25T03:09:03.170Z,2.21
2023-04-25T03:10:03.270Z,2.16
2023-04-25T03:11:03.291Z,2.10
2023-04-25T03:12:03.364Z,2.10
2023-04-25T03:13:03.426Z,2.15
2023-04-25T03:14:03.473Z,2.09
2023-04-25T03:15:03.548Z,2.14
2023-04-25T03:16:03.667Z,2.13
2023-04-25T03:17:03.717Z,2.17
2023-04-25T03:18:03.779Z,2.15
2023-04-25T03:19:03.797Z,2.17
2023-04-25T03:20:03.863Z,2.06
2023-04-25T03:21:03.930Z,2.07
2023-04-25T03:22:04.000Z,2.02
2023-04-25T03:23:04.028Z,2.02
2023-04-25T03:24:04.107Z,2.08
2023-04-25T03:25:04.143Z,2.08
2023-04-25T03:26:04.197Z,2.09
2023-04-25T03:27:04.272Z,2.14
2023-04-25T03:28:04.310Z,2.14
2023-04-25T03:29:04.362Z,2.09
2023-04-25T03:30:04.443Z,2.05
2023-04-25T03:31:04.515Z,2.08
2023-04-25T03:32:04.580Z,2.12
2023-04-25T03:33:04.677Z,2.09
2023-04-25T03:34:04.702Z,2.07
2023-04-25T03:35:04.746Z,2.03
2023-04-25T03:36:04.809Z,2.03
2023-04-25T03:37:04.870Z,1.99
2023-04-25T03:38:04.941Z,1.99
2023-04-25T03:39:04.966Z,2.06
2023-04-25T03:40:05.021Z,1.94
2023-04-25T03:41:05.092Z,2.01
2023-04-25T03:42:05.153Z,1.95
2023-04-25T03:43:05.231Z,1.91
2023-04-25T03:44:05.300Z,1.92
2023-04-25T03:45:05.347Z,2.00
2023-04-25T03:46:05.449Z,1.96
2023-04-25T03:47:05.471Z,1.93
2023-04-25T03:48:05.554Z,1.91
2023-04-25T03:49:05.588Z,1.97
2023-04-25T03:50:05.660Z,1.94
2023-04-25T03:51:05.697Z,1.91
2023-04-25T03:52:05.796Z,1.95
2023-04-25T03:53:05.842Z,1.98
2023-04-25T03:54:05.898Z,1.96
2023-04-25T03:55:05.978Z,1.96
2023-04-25T03:56:06.043Z,1.96
2023-04-25T03:57:06.096Z,1.92
2023-04-25T03:58:06.144Z,1.93
2023-04-25T03:59:06.206Z,1.89
2023-04-25T04:00:06.265Z,1.85
2023-04-25T04:01:06.348Z,1.91
2023-04-25T04:02:06.434Z,1.90
2023-04-25T04:03:06.609Z,1.91
2023-04-25T04:04:06.736Z,1.92
2023-04-25T04:05:06.872Z,1.86
2023-04-25T04:06:06.706Z,1.88
2023-04-25T04:07:06.730Z,1.91
2023-04-25T04:08:06.780Z,1.88
2023-04-25T04:09:06.864Z,1.91
2023-04-25T04:10:06.900Z,1.88
2023-04-25T04:11:06.992Z,1.91
2023-04-25T04:12:07.047Z,1.88
2023-04-25T04:13:07.085Z,1.82
2023-04-25T04:14:07.145Z,1.89
2023-04-25T04:15:07.229Z,1.91
2023-04-25T04:16:07.321Z,1.86
2023-04-25T04:17:07.348Z,1.88
2023-04-25T04:18:07.467Z,1.89
2023-04-25T04:19:07.460Z,1.86
2023-04-25T04:20:07.520Z,1.92
2023-04-25T04:21:07.569Z,1.90
2023-04-25T04:22:07.654Z,1.92
2023-04-25T04:23:07.703Z,1.97
2023-04-25T04:24:07.744Z,1.91
2023-04-25T04:25:07.813Z,1.92
2023-04-25T04:26:07.894Z,1.93
2023-04-25T04:27:07.949Z,1.90
2023-04-25T04:28:07.986Z,1.92
2023-04-25T04:29:08.082Z,1.93
2023-04-25T04:30:08.134Z,1.95
2023-04-25T04:31:08.275Z,1.91
2023-04-25T04:32:08.261Z,1.97
2023-04-25T04:33:08.426Z,1.91
2023-04-25T04:34:08.365Z,1.89
2023-04-25T04:35:08.421Z,1.93
2023-04-25T04:36:08.502Z,1.90
2023-04-25T04:37:08.553Z,1.93
2023-04-25T04:38:08.618Z,1.93
2023-04-25T04:39:08.682Z,1.95
2023-04-25T04:40:08.748Z,1.92
2023-04-25T04:41:08.804Z,1.95
2023-04-25T04:42:08.869Z,1.89
2023-04-25T04:43:08.920Z,1.86
2023-04-25T04:44:09.034Z,1.89
2023-04-25T04:45:09.036Z,1.91
2023-04-25T04:46:09.126Z,1.83
2023-04-25T04:47:09.158Z,1.84
2023-04-25T04:48:09.260Z,1.85
2023-04-25T04:49:09.302Z,1.86
2023-04-25T04:50:09.348Z,1.88
2023-04-25T04:51:09.396Z,1.90
2023-04-25T04:52:09.485Z,1.87
2023-04-25T04:53:09.526Z,1.86
2023-04-25T04:54:09.590Z,1.89
2023-04-25T04:55:09.667Z,1.91
2023-04-25T04:56:09.703Z,1.92
2023-04-25T04:57:09.782Z,1.93
2023-04-25T04:58:09.824Z,1.91
2023-04-25T04:59:09.881Z,1.90
2023-04-25T05:00:09.934Z,1.92
2023-04-25T05:01:10.093Z,1.88
2023-04-25T05:02:10.256Z,1.84
2023-04-25T05:03:10.398Z,1.86
2023-04-25T05:04:10.323Z,1.85
2023-04-25T05:05:10.219Z,1.83
2023-04-25T05:06:10.284Z,1.84
2023-04-25T05:07:10.346Z,1.84
2023-04-25T05:08:10.411Z,1.82
2023-04-25T05:09:10.455Z,1.79
2023-04-25T05:10:10.511Z,1.80
2023-04-25T05:11:10.503Z,1.71
2023-04-25T05:12:10.540Z,1.70
2023-04-25T05:13:10.564Z,1.65
2023-04-25T05:14:10.590Z,1.34
2023-04-25T05:15:10.607Z,1.06
2023-04-25T05:16:10.706Z,0.90
2023-04-25T05:17:10.745Z,0.79
2023-04-25T05:18:10.808Z,0.83
2023-04-25T05:19:10.774Z,0.73
2023-04-25T05:20:10.862Z,0.71
2023-04-25T05:21:10.859Z,0.68
2023-04-25T05:22:10.898Z,0.75
2023-04-25T05:23:10.943Z,0.80
2023-04-25T05:24:10.949Z,0.82
2023-04-25T05:25:11.145Z,0.80
2023-04-25T05:26:11.032Z,0.89
2023-04-25T05:27:11.042Z,0.73
2023-04-25T05:28:11.051Z,0.47
2023-04-25T05:29:11.110Z,0.43
2023-04-25T05:30:11.162Z,0.47
2023-04-25T05:31:11.189Z,0.41
2023-04-25T05:32:11.322Z,0.37
2023-04-25T05:33:11.310Z,0.34
2023-04-25T05:34:11.275Z,0.35
2023-04-25T05:35:11.804Z,0.53
2023-04-25T05:36:11.282Z,0.64
2023-04-25T05:37:11.339Z,0.67
2023-04-25T05:38:11.364Z,0.83
2023-04-25T05:39:11.440Z,0.86
2023-04-25T05:40:11.536Z,0.93
2023-04-25T05:41:11.503Z,1.03
2023-04-25T05:42:11.507Z,1.14
2023-04-25T05:43:11.532Z,1.22
2023-04-25T05:44:11.568Z,1.53
2023-04-25T05:45:11.632Z,1.58
2023-04-25T05:46:11.786Z,1.66
2023-04-25T05:47:12.108Z,1.52
2023-04-25T05:48:12.250Z,1.52
2023-04-25T05:49:11.836Z,1.58
2023-04-25T05:50:11.884Z,1.61
2023-04-25T05:51:11.922Z,1.54
2023-04-25T05:52:11.967Z,1.75
2023-04-25T05:53:11.993Z,1.78
2023-04-25T05:54:12.044Z,1.82
2023-04-25T05:55:12.060Z,2.06
2023-04-25T05:56:12.082Z,2.29
2023-04-25T05:57:12.104Z,2.27
2023-04-25T05:58:12.129Z,2.30
2023-04-25T05:59:12.129Z,2.64
2023-04-25T06:00:12.152Z,2.73
2023-04-25T06:01:12.164Z,2.66
2023-04-25T06:02:13.139Z,2.85
2023-04-25T06:03:12.290Z,2.73
2023-04-25T06:04:12.478Z,2.83
2023-04-25T06:05:12.300Z,3.51
2023-04-25T06:06:12.159Z,3.81
2023-04-25T06:07:12.188Z,4.08
2023-04-25T06:08:12.201Z,4.33
2023-04-25T06:09:14.408Z,3.92
2023-04-25T06:10:12.338Z,3.75
2023-04-25T06:11:12.412Z,3.77
2023-04-25T06:12:12.457Z,4.64
2023-04-25T06:13:12.674Z,4.29
2023-04-25T06:14:12.556Z,4.10
2023-04-25T06:15:24.318Z,3.82
2023-04-25T06:16:13.693Z,3.83
2023-04-25T06:17:12.630Z,3.87
2023-04-25T06:18:12.668Z,3.99
2023-04-25T06:19:12.579Z,3.54
2023-04-25T06:20:12.596Z,3.32
2023-04-25T06:21:12.585Z,3.55
2023-04-25T06:22:12.566Z,3.42
2023-04-25T06:23:12.575Z,2.91
2023-04-25T06:24:12.551Z,3.08
2023-04-25T06:25:12.555Z,2.91
2023-04-25T06:26:12.536Z,2.93
2023-04-25T06:27:12.691Z,4.01
2023-04-25T06:28:12.549Z,3.61
2023-04-25T06:29:12.515Z,3.25
2023-04-25T06:30:12.518Z,2.51
2023-04-25T06:31:12.717Z,2.23
2023-04-25T06:32:12.515Z,1.11
2023-04-25T06:33:12.696Z,0.88
2023-04-25T06:34:12.498Z,0.66
2023-04-25T06:35:12.477Z,0.66
2023-04-25T06:36:12.501Z,1.08
2023-04-25T06:37:12.561Z,1.38
2023-04-25T06:38:12.680Z,1.88
2023-04-25T06:39:12.552Z,2.24
2023-04-25T06:40:12.583Z,2.48
2023-04-25T06:41:12.637Z,2.91
2023-04-25T06:42:12.676Z,2.92
2023-04-25T06:43:13.180Z,3.17
2023-04-25T06:44:12.780Z,3.29
2023-04-25T06:45:12.788Z,4.18
2023-04-25T06:46:13.204Z,5.44
2023-04-25T06:47:12.804Z,6.60
2023-04-25T06:48:13.170Z,8.38
2023-04-25T06:49:12.796Z,9.48
2023-04-25T06:50:12.825Z,7.72
2023-04-25T06:51:13.169Z,10.20
2023-04-25T06:52:12.949Z,13.36
2023-04-25T06:53:12.992Z,13.64
2023-04-25T06:54:13.039Z,15.40
2023-04-25T06:55:13.088Z,15.41
2023-04-25T06:56:13.096Z,16.35
2023-04-25T06:57:13.147Z,16.59
2023-04-25T06:58:13.160Z,16.59
2023-04-25T06:59:13.174Z,9.42
2023-04-25T07:00:13.167Z,10.58
2023-04-25T07:01:13.253Z,14.08
2023-04-25T07:02:13.251Z,10.42
2023-04-25T07:03:13.314Z,7.94
2023-04-25T07:04:13.302Z,4.37
2023-04-25T07:05:13.196Z,3.21
2023-04-25T07:06:13.691Z,2.39
2023-04-25T07:07:13.206Z,2.69
2023-04-25T07:08:13.678Z,1.88
2023-04-25T07:09:13.248Z,1.66
2023-04-25T07:10:13.258Z,1.13
2023-04-25T07:11:13.324Z,1.26
2023-04-25T07:12:13.356Z,1.15
2023-04-25T07:13:13.411Z,1.34
2023-04-25T07:14:13.460Z,1.31
2023-04-25T07:15:13.489Z,1.18
2023-04-25T07:16:13.565Z,1.91
2023-04-25T07:17:13.597Z,1.43
2023-04-25T07:18:13.658Z,1.39
2023-04-25T07:19:13.722Z,2.30
2023-04-25T07:20:13.763Z,2.23
2023-04-25T07:21:13.852Z,2.01
2023-04-25T07:22:13.867Z,1.65
2023-04-25T07:23:13.854Z,1.23
2023-04-25T07:24:13.867Z,1.04
2023-04-25T07:25:13.867Z,0.84
2023-04-25T07:26:13.866Z,0.73
2023-04-25T07:27:13.885Z,0.60
2023-04-25T07:28:14.218Z,0.67
2023-04-25T07:29:13.968Z,0.50
2023-04-25T07:30:13.996Z,0.55
2023-04-25T07:31:14.008Z,0.60
2023-04-25T07:32:14.168Z,0.67
2023-04-25T07:33:14.132Z,0.64
2023-04-25T07:34:14.101Z,0.65
2023-04-25T07:35:14.142Z,0.79
2023-04-25T07:36:14.147Z,0.88
2023-04-25T07:37:14.152Z,1.07
2023-04-25T07:38:14.209Z,1.31
2023-04-25T07:39:14.175Z,1.84
2023-04-25T07:40:14.206Z,1.94
2023-04-25T07:41:14.214Z,2.56
2023-04-25T07:42:14.247Z,4.72
2023-04-25T07:43:14.314Z,4.45
2023-04-25T07:44:14.366Z,4.34
2023-04-25T07:45:14.433Z,5.57
2023-04-25T07:46:14.505Z,12.83
2023-04-25T07:47:14.506Z,11.34
2023-04-25T07:48:14.693Z,14.04
2023-04-25T07:49:14.553Z,7.97
2023-04-25T07:50:14.576Z,11.24
2023-04-25T07:51:14.708Z,11.34
2023-04-25T07:52:14.579Z,11.45
2023-04-25T07:53:14.710Z,13.61
2023-04-25T07:54:14.606Z,12.21
2023-04-25T07:55:14.651Z,15.03
2023-04-25T07:56:14.686Z,12.87
2023-04-25T07:57:14.759Z,17.03
2023-04-25T07:58:14.808Z,11.70
2023-04-25T07:59:14.868Z,8.57
2023-04-25T08:00:14.920Z,4.29
2023-04-25T08:01:15.004Z,3.73
2023-04-25T08:02:15.084Z,3.79
2023-04-25T08:03:15.409Z,4.81
2023-04-25T08:04:15.369Z,6.27
2023-04-25T08:05:15.554Z,7.34
2023-04-25T08:06:15.446Z,7.59
2023-04-25T08:07:15.336Z,8.30
2023-04-25T08:08:15.394Z,4.70
2023-04-25T08:09:15.470Z,2.91
2023-04-25T08:10:15.531Z,3.05
2023-04-25T08:11:15.548Z,3.54
2023-04-25T08:12:15.607Z,4.91
2023-04-25T08:13:15.688Z,5.88
2023-04-25T08:14:15.736Z,5.05
2023-04-25T08:15:15.794Z,5.14
2023-04-25T08:16:15.916Z,4.58
2023-04-25T08:17:15.896Z,4.32
2023-04-25T08:18:17.673Z,3.64
2023-04-25T08:19:16.231Z,4.84
2023-04-25T08:20:16.024Z,2.60
2023-04-25T08:21:16.226Z,2.35
2023-04-25T08:22:16.136Z,1.88
2023-04-25T08:23:16.225Z,1.62
2023-04-25T08:24:16.734Z,1.21
2023-04-25T08:25:16.286Z,2.17
2023-04-25T08:26:16.329Z,2.98
2023-04-25T08:27:16.383Z,3.74
2023-04-25T08:28:16.416Z,3.12
2023-04-25T08:29:16.716Z,4.24
2023-04-25T08:30:16.510Z,6.50
2023-04-25T08:31:16.577Z,8.18
2023-04-25T08:32:16.604Z,2.88
2023-04-25T08:33:16.660Z,1.80
2023-04-25T08:34:16.730Z,2.51
2023-04-25T08:35:16.720Z,2.00
2023-04-25T08:36:24.232Z,3.43
2023-04-25T08:37:17.767Z,3.45
2023-04-25T08:38:16.745Z,2.22
2023-04-25T08:39:17.224Z,1.60
2023-04-25T08:40:16.738Z,1.81
2023-04-25T08:41:16.718Z,1.46
2023-04-25T08:42:16.741Z,1.16
2023-04-25T08:43:16.707Z,0.87
2023-04-25T08:44:16.712Z,0.58
2023-04-25T08:45:16.715Z,0.41
2023-04-25T08:46:16.732Z,0.37
2023-04-25T08:47:16.719Z,0.40
2023-04-25T08:48:16.783Z,0.41
2023-04-25T08:49:16.811Z,0.44
2023-04-25T08:50:16.847Z,0.39
2023-04-25T08:51:17.390Z,0.39
2023-04-25T08:52:16.853Z,0.39
2023-04-25T08:53:16.856Z,0.44
2023-04-25T08:54:30.783Z,0.49
2023-04-25T08:55:17.873Z,0.45
2023-04-25T08:56:17.238Z,0.42
2023-04-25T08:57:16.852Z,0.42
2023-04-25T08:58:16.861Z,0.40
2023-04-25T08:59:16.846Z,0.36
2023-04-25T09:00:16.844Z,0.47
2023-04-25T09:01:16.922Z,0.53
2023-04-25T09:02:16.889Z,0.52
2023-04-25T09:03:17.121Z,0.49
2023-04-25T09:04:16.898Z,0.50
2023-04-25T09:05:17.027Z,0.49
2023-04-25T09:06:16.853Z,0.51
2023-04-25T09:07:16.788Z,0.50
2023-04-25T09:08:16.826Z,0.49
2023-04-25T09:09:16.895Z,0.50
2023-04-25T09:10:16.937Z,0.49
2023-04-25T09:11:17.214Z,0.62
2023-04-25T09:12:17.062Z,0.58
2023-04-25T09:13:17.107Z,0.56
2023-04-25T09:14:17.168Z,0.56
2023-04-25T09:16:17.255Z,0.50
2023-04-25T09:17:17.212Z,0.49
2023-04-25T09:18:17.207Z,0.50
2023-04-25T09:19:17.225Z,0.54
2023-04-25T09:20:17.199Z,0.50
2023-04-25T09:21:17.212Z,0.51
2023-04-25T09:22:17.193Z,0.52
2023-04-25T09:23:17.212Z,0.54
2023-04-25T09:24:17.181Z,0.53
2023-04-25T09:25:17.161Z,0.63
2023-04-25T09:26:17.308Z,0.68
2023-04-25T09:27:17.143Z,0.84
2023-04-25T09:28:17.139Z,0.80
2023-04-25T09:29:17.137Z,1.17
2023-04-25T09:30:17.141Z,1.37
2023-04-25T09:31:17.250Z,1.35
2023-04-25T09:32:17.272Z,1.95
2023-04-25T09:33:17.157Z,2.90
2023-04-25T09:34:17.250Z,3.68
2023-04-25T09:35:17.129Z,4.09
2023-04-25T09:36:17.268Z,5.90
2023-04-25T09:37:17.108Z,6.40
2023-04-25T09:38:17.095Z,8.63
2023-04-25T09:39:17.256Z,14.34
2023-04-25T09:40:17.080Z,77.87
2023-04-25T09:41:17.885Z,218.04
2023-04-25T09:42:17.075Z,298.80
2023-04-25T09:43:17.050Z,200.36
2023-04-25T09:44:17.298Z,77.86
2023-04-25T09:45:17.066Z,35.96
2023-04-25T09:46:17.092Z,24.10
2023-04-25T09:47:17.262Z,17.61
2023-04-25T09:48:17.035Z,12.81
2023-04-25T09:49:17.281Z,9.59
2023-04-25T09:50:17.053Z,6.18
2023-04-25T09:51:17.021Z,5.27
2023-04-25T09:52:17.252Z,4.38
2023-04-25T09:53:16.999Z,3.54
2023-04-25T09:54:16.979Z,2.65
2023-04-25T09:55:16.973Z,2.35
2023-04-25T09:56:16.970Z,2.02
2023-04-25T09:57:16.983Z,1.67
2023-04-25T09:58:16.967Z,1.50
2023-04-25T09:59:17.244Z,2.06
2023-04-25T10:00:16.992Z,2.60
2023-04-25T10:01:17.055Z,3.76
2023-04-25T10:02:17.300Z,5.22
2023-04-25T10:03:17.094Z,5.56
2023-04-25T10:04:16.987Z,8.37
2023-04-25T10:05:16.967Z,13.20
2023-04-25T10:06:16.898Z,14.32
2023-04-25T10:07:16.897Z,22.55
2023-04-25T10:08:16.903Z,4.55
2023-04-25T10:09:16.884Z,3.90
2023-04-25T10:10:16.874Z,5.54
2023-04-25T10:11:16.970Z,7.33
2023-04-25T10:12:16.888Z,10.92
2023-04-25T10:13:16.854Z,22.78
2023-04-25T10:14:16.846Z,48.43
2023-04-25T10:15:16.859Z,52.99
2023-04-25T10:16:16.876Z,60.02
2023-04-25T10:17:16.849Z,58.08
2023-04-25T10:18:16.847Z,66.92
2023-04-25T10:19:16.925Z,83.28
2023-04-25T10:20:17.047Z,89.69
2023-04-25T10:21:17.022Z,75.73
2023-04-25T10:22:17.278Z,87.25
2023-04-25T10:23:17.130Z,104.34
2023-04-25T10:24:17.263Z,102.94
2023-04-25T10:25:17.202Z,112.45
2023-04-25T10:26:17.225Z,146.10
2023-04-25T10:27:17.276Z,168.56
2023-04-25T10:28:17.272Z,177.16
2023-04-25T10:29:17.771Z,178.20
2023-04-25T10:30:17.652Z,139.84
2023-04-25T10:31:17.523Z,153.44
2023-04-25T10:32:17.862Z,157.91
2023-04-25T10:33:17.402Z,185.92
2023-04-25T10:34:17.407Z,214.73
2023-04-25T10:35:17.438Z,242.80
2023-04-25T10:36:17.467Z,254.77
2023-04-25T10:37:17.775Z,263.21
2023-04-25T10:38:17.473Z,257.50
2023-04-25T10:39:17.489Z,267.08
2023-04-25T10:40:17.526Z,268.88
2023-04-25T10:41:17.554Z,265.54
2023-04-25T10:42:17.576Z,259.03
2023-04-25T10:43:18.227Z,261.97
2023-04-25T10:44:17.592Z,265.18
2023-04-25T10:45:17.618Z,266.90
2023-04-25T10:46:17.702Z,257.72
2023-04-25T10:47:17.674Z,273.31
2023-04-25T10:48:17.701Z,262.65
2023-04-25T10:49:17.763Z,157.09
2023-04-25T10:50:17.755Z,173.45
2023-04-25T10:51:17.791Z,249.04
2023-04-25T10:52:17.856Z,259.95
2023-04-25T10:53:17.890Z,132.00
2023-04-25T10:54:17.928Z,160.94
2023-04-25T10:55:17.958Z,212.30
2023-04-25T10:56:17.999Z,208.06
2023-04-25T10:57:18.284Z,205.52
2023-04-25T10:58:18.075Z,198.94
2023-04-25T10:59:18.142Z,174.29
2023-04-25T11:00:18.185Z,201.51
2023-04-25T11:01:18.200Z,217.35
2023-04-25T11:02:18.390Z,231.96
2023-04-25T11:03:18.481Z,242.81
2023-04-25T11:04:18.531Z,260.15
2023-04-25T11:05:20.273Z,272.06
2023-04-25T11:06:18.309Z,286.51
2023-04-25T11:07:18.788Z,293.72
2023-04-25T11:08:18.291Z,316.59
2023-04-25T11:09:18.298Z,307.93
2023-04-25T11:10:18.306Z,312.12
2023-04-25T11:11:18.292Z,311.27
2023-04-25T11:12:18.285Z,317.23
2023-04-25T11:13:18.262Z,309.36
2023-04-25T11:14:18.315Z,87.84
2023-04-25T11:15:18.274Z,111.92
2023-04-25T11:17:19.276Z,165.50
2023-04-25T11:18:18.253Z,169.10
2023-04-25T11:19:18.222Z,176.21
2023-04-25T11:20:18.211Z,187.12
2023-04-25T11:21:18.226Z,200.86
2023-04-25T11:22:18.218Z,206.21
2023-04-25T11:23:18.208Z,207.79
2023-04-25T11:24:18.202Z,206.94
2023-04-25T11:25:18.202Z,210.03
2023-04-25T11:26:18.192Z,202.90
2023-04-25T11:27:18.305Z,204.65
2023-04-25T11:28:18.177Z,202.34
2023-04-25T11:29:18.207Z,203.83
2023-04-25T11:30:18.151Z,203.30
2023-04-25T11:31:18.152Z,203.95
2023-04-25T11:32:18.616Z,205.74
2023-04-25T11:33:18.153Z,208.79
2023-04-25T11:34:18.128Z,205.96
2023-04-25T11:35:18.138Z,202.39
2023-04-25T11:36:18.120Z,200.15
2023-04-25T11:37:18.220Z,197.43
2023-04-25T11:38:18.099Z,191.40
2023-04-25T11:39:18.112Z,190.73
2023-04-25T11:40:18.094Z,183.08
2023-04-25T11:41:18.098Z,184.32
2023-04-25T11:42:18.089Z,176.48
2023-04-25T11:43:21.549Z,175.02
2023-04-25T11:44:18.083Z,175.26
2023-04-25T11:45:18.065Z,174.73
2023-04-25T11:46:18.073Z,170.89
2023-04-25T11:47:18.070Z,169.78
2023-04-25T11:48:18.221Z,166.77
2023-04-25T11:49:18.038Z,161.00
2023-04-25T11:50:18.045Z,159.22
2023-04-25T11:51:18.038Z,156.33
2023-04-25T11:52:18.080Z,154.97
2023-04-25T11:53:18.022Z,152.84
2023-04-25T11:54:18.030Z,150.47
2023-04-25T11:55:18.023Z,148.09
2023-04-25T11:56:17.994Z,146.18
2023-04-25T11:57:18.009Z,144.28
2023-04-25T11:58:17.991Z,141.97
2023-04-25T11:59:17.998Z,136.47
2023-04-25T12:00:18.970Z,137.43
2023-04-25T12:01:17.971Z,133.13
2023-04-25T12:02:18.062Z,131.14
2023-04-25T12:03:18.066Z,132.92
2023-04-25T12:04:18.288Z,128.94
2023-04-25T12:06:18.140Z,127.00
2023-04-25T12:07:17.974Z,127.02
2023-04-25T12:08:17.936Z,124.16
2023-04-25T12:09:17.908Z,126.61
2023-04-25T12:10:17.914Z,123.49
2023-04-25T12:11:17.925Z,120.12
2023-04-25T12:12:17.922Z,122.26
2023-04-25T12:13:17.899Z,121.25
2023-04-25T12:14:17.892Z,120.38
2023-04-25T12:15:18.365Z,119.88
2023-04-25T12:16:17.885Z,120.26
2023-04-25T12:17:17.857Z,114.59
2023-04-25T12:18:18.376Z,111.63
2023-04-25T12:19:17.868Z,59.44
2023-04-25T12:20:17.843Z,62.11
2023-04-25T12:21:17.902Z,80.35
2023-04-25T12:22:17.934Z,58.18
2023-04-25T12:23:18.327Z,48.78
2023-04-25T12:24:18.046Z,21.02
2023-04-25T12:25:18.314Z,9.49
2023-04-25T12:26:18.024Z,4.49
2023-04-25T12:27:18.047Z,3.07
2023-04-25T12:28:18.034Z,2.84
2023-04-25T12:29:18.043Z,2.12
2023-04-25T12:30:18.062Z,1.74
2023-04-25T12:31:18.145Z,1.23
2023-04-25T12:32:18.200Z,1.17
2023-04-25T12:33:18.397Z,0.95
2023-04-25T12:34:18.134Z,1.65
2023-04-25T12:35:18.165Z,2.69
2023-04-25T12:36:18.220Z,4.26
2023-04-25T12:37:18.213Z,10.99
2023-04-25T12:38:18.328Z,14.60
2023-04-25T12:39:18.261Z,18.10
2023-04-25T12:40:18.285Z,20.75
2023-04-25T12:41:18.327Z,19.86
2023-04-25T12:42:18.304Z,18.21
2023-04-25T12:43:18.283Z,17.11
2023-04-25T12:44:18.287Z,17.07
2023-04-25T12:45:18.325Z,16.02
2023-04-25T12:46:18.300Z,16.02
2023-04-25T12:47:18.273Z,16.79
2023-04-25T12:48:18.332Z,17.14
2023-04-25T12:49:19.324Z,18.00
2023-04-25T12:50:18.330Z,19.75
2023-04-25T12:51:18.288Z,19.43
2023-04-25T12:52:18.285Z,20.63
2023-04-25T12:53:18.284Z,21.65
2023-04-25T12:54:18.287Z,22.05
2023-04-25T12:55:18.278Z,23.46
2023-04-25T12:56:18.760Z,23.74
2023-04-25T12:57:18.297Z,24.84
2023-04-25T12:58:18.323Z,25.20
2023-04-25T12:59:18.338Z,26.18
2023-04-25T13:00:18.361Z,27.07
2023-04-25T13:01:18.473Z,27.99
2023-04-25T13:02:18.524Z,29.27
2023-04-25T13:03:18.572Z,30.74
2023-04-25T13:04:18.642Z,31.91
2023-04-25T13:05:18.515Z,31.73
2023-04-25T13:06:18.539Z,33.05
2023-04-25T13:07:18.605Z,34.17
2023-04-25T13:08:18.834Z,33.45
2023-04-25T13:09:18.656Z,34.88
2023-04-25T13:10:18.678Z,36.56
2023-04-25T13:11:18.719Z,36.72